Hemingford, NE (69348)

4:21 AM MDT on July 14, 2014 (GMT -0600)
Panhandle Coop/Box Butte Co (KNEALLIA3) Elev 4140 ft | 42.22 °N, 102.98 °W | Change Station

Current weather conditions updated 8 minutes ago

Clear
Clear
58.2 °F
Feels Like 58.2 °F
N
2.0
Wind Variable Wind from WNW
Gusts 5.0 mph

Today is forecast to be Much Cooler than yesterday.

Today
High -- | Low -- °F
--% Chance of Precip.
Yesterday
High -- | Low -- °F
Precip. -- in
5:28 AM 8:27 PM
Waning Gibbous, 94% visible
Pressure 30.08 in
Visibility 10.0 miles
Clouds Clear
Dew Point 55 °F
Humidity 89%
Rainfall 0.00 in
Snow Depth Not available.
UV 0 out of 12
Pollen 4.80 out of 12
Air Quality Not available.
Flu Activity Sporadic
METAR KAIA 140953Z AUTO 36007KT 10SM CLR 14/13 A3020 RMK AO2 SLP186 T01390128 $

More Conditions Fewer Conditions

Pressure 30.08 in
Visibility 10.0 miles
Clouds Clear
Dew Point 55 °F
Humidity 89%
Rainfall 0.00 in
Snow Depth Not available.
UV 0 out of 12
Pollen 4.80 out of 12
Air Quality Not available.
Flu Activity Sporadic
METAR KAIA 140953Z AUTO 36007KT 10SM CLR 14/13 A3020 RMK AO2 SLP186 T01390128 $

More Conditions Fewer Conditions

10-Day Weather Forecast

Almanac

Astronomy

Jul. 14, 2014 Rise Set
Actual Time 5:28 AM MDT 8:27 PM MDT
Civil Twilight 4:54 AM MDT 9:01 PM MDT
Nautical Twilight 4:11 AM MDT 9:43 PM MDT
Astronomical Twilight 3:21 AM MDT 10:34 PM MDT
Moon 9:54 PM MDT 8:17 AM MDT
Length of Visible Light 16h 06m
Length of Day
14h 59m
Tomorrow will be 1m 26s shorter.
Waning Gibbous, 94% of the Moon is Illuminated
Today
Waning Gibbous
Jul 18
Last Quarter
Jul 26
New
Aug 3
First Quarter
Aug 10
Full

Today's Extremes

State Highs State Lows

Community

WunderPhotos

Upload Photos

1,733,603 photos uploaded!

Nearby

Snow Depth

Station Depth Elevation
No new snow has been reported.

Earthquake Activity

City Distance Mag. Time & Date
No recent earthquake activity has been reported nearby.
Minimum magnitude displayed is 2.5.

Coastal Water Temperatures

Place Temperature
No Stations Reporting

Nearby Weather Stations

Station Location Temp. Dew Point Humidity Wind Precip. Elev Updated Type
Panhandle Coop/Box Butte Co, Alliance, NE 58.2 °F 55 °F 89% WNW  at  2.0 mph 0.00 in / hr 4140 ft 4:13 AM MDT Normal
Wayne Rd., Alliance, NE 55.3 °F 54 °F 94% NW  at  0.0 mph 0.00 in / hr 4091 ft 4:18 AM MDT Normal

Show More Stations Show Fewer Stations